sensor_id;sensor_type;location;lat;lon;timestamp;temperature;humidity
43049;DHT22;28673;44.412;11.918;2023-07-08T00:00:52;21.80;97.10
43049;DHT22;28673;44.412;11.918;2023-07-08T00:03:19;21.80;97.10
43049;DHT22;28673;44.412;11.918;2023-07-08T00:05:46;21.80;97.20
43049;DHT22;28673;44.412;11.918;2023-07-08T00:08:14;21.80;97.40
43049;DHT22;28673;44.412;11.918;2023-07-08T00:10:40;21.70;97.40
43049;DHT22;28673;44.412;11.918;2023-07-08T00:13:08;21.70;97.50
43049;DHT22;28673;44.412;11.918;2023-07-08T00:15:35;21.70;97.60
43049;DHT22;28673;44.412;11.918;2023-07-08T00:18:03;21.70;97.70
43049;DHT22;28673;44.412;11.918;2023-07-08T00:20:40;21.60;97.80
43049;DHT22;28673;44.412;11.918;2023-07-08T00:23:08;21.60;97.90
43049;DHT22;28673;44.412;11.918;2023-07-08T00:25:35;21.60;98.00
43049;DHT22;28673;44.412;11.918;2023-07-08T00:28:01;21.60;98.10
43049;DHT22;28673;44.412;11.918;2023-07-08T00:30:30;21.60;98.30
43049;DHT22;28673;44.412;11.918;2023-07-08T00:32:58;21.60;98.40
43049;DHT22;28673;44.412;11.918;2023-07-08T00:35:33;21.60;98.50
43049;DHT22;28673;44.412;11.918;2023-07-08T00:38:00;21.50;98.60
43049;DHT22;28673;44.412;11.918;2023-07-08T00:40:29;21.50;98.60
43049;DHT22;28673;44.412;11.918;2023-07-08T00:42:57;21.50;98.80
43049;DHT22;28673;44.412;11.918;2023-07-08T00:51:03;21.40;98.80
43049;DHT22;28673;44.412;11.918;2023-07-08T00:53:32;21.40;98.80
43049;DHT22;28673;44.412;11.918;2023-07-08T00:56:02;21.40;98.90
43049;DHT22;28673;44.412;11.918;2023-07-08T00:59:21;21.30;98.90
43049;DHT22;28673;44.412;11.918;2023-07-08T01:01:28;21.30;99.10
43049;DHT22;28673;44.412;11.918;2023-07-08T01:04:01;21.30;99.00
43049;DHT22;28673;44.412;11.918;2023-07-08T01:06:30;21.20;99.10
43049;DHT22;28673;44.412;11.918;2023-07-08T01:09:00;21.20;99.10
43049;DHT22;28673;44.412;11.918;2023-07-08T01:11:28;21.10;99.10
43049;DHT22;28673;44.412;11.918;2023-07-08T01:13:55;21.10;99.50
43049;DHT22;28673;44.412;11.918;2023-07-08T01:16:22;21.10;99.10
43049;DHT22;28673;44.412;11.918;2023-07-08T01:18:48;21.00;99.20
43049;DHT22;28673;44.412;11.918;2023-07-08T01:21:34;20.90;99.30
43049;DHT22;28673;44.412;11.918;2023-07-08T01:24:05;20.90;99.60
43049;DHT22;28673;44.412;11.918;2023-07-08T01:26:32;20.90;99.50
43049;DHT22;28673;44.412;11.918;2023-07-08T01:28:59;20.90;99.90
43049;DHT22;28673;44.412;11.918;2023-07-08T01:31:26;20.80;99.60
43049;DHT22;28673;44.412;11.918;2023-07-08T01:33:52;20.80;99.70
43049;DHT22;28673;44.412;11.918;2023-07-08T01:36:19;20.70;99.80
43049;DHT22;28673;44.412;11.918;2023-07-08T01:38:46;20.70;99.90
43049;DHT22;28673;44.412;11.918;2023-07-08T01:41:14;20.70;99.90
43049;DHT22;28673;44.412;11.918;2023-07-08T01:43:40;20.70;99.90
43049;DHT22;28673;44.412;11.918;2023-07-08T01:46:26;20.60;99.90
43049;DHT22;28673;44.412;11.918;2023-07-08T01:48:56;20.60;99.90
43049;DHT22;28673;44.412;11.918;2023-07-08T01:51:24;20.60;99.90
43049;DHT22;28673;44.412;11.918;2023-07-08T01:53:50;20.60;99.90
43049;DHT22;28673;44.412;11.918;2023-07-08T01:56:16;20.60;99.90
43049;DHT22;28673;44.412;11.918;2023-07-08T01:58:42;20.60;99.90
43049;DHT22;28673;44.412;11.918;2023-07-08T02:01:09;20.50;99.90
43049;DHT22;28673;44.412;11.918;2023-07-08T02:03:35;20.50;99.90
43049;DHT22;28673;44.412;11.918;2023-07-08T02:06:02;20.50;99.90
43049;DHT22;28673;44.412;11.918;2023-07-08T02:08:29;20.50;99.90
43049;DHT22;28673;44.412;11.918;2023-07-08T02:10:57;20.50;99.90
43049;DHT22;28673;44.412;11.918;2023-07-08T02:13:23;20.40;99.90
43049;DHT22;28673;44.412;11.918;2023-07-08T02:15:50;20.40;99.90
43049;DHT22;28673;44.412;11.918;2023-07-08T02:18:17;20.40;99.90
43049;DHT22;28673;44.412;11.918;2023-07-08T02:20:45;20.40;99.90
43049;DHT22;28673;44.412;11.918;2023-07-08T02:23:11;20.40;99.90
43049;DHT22;28673;44.412;11.918;2023-07-08T02:25:37;20.40;99.90
43049;DHT22;28673;44.412;11.918;2023-07-08T02:28:03;20.30;99.90
43049;DHT22;28673;44.412;11.918;2023-07-08T02:30:29;20.30;99.90
43049;DHT22;28673;44.412;11.918;2023-07-08T02:32:55;20.20;99.90
43049;DHT22;28673;44.412;11.918;2023-07-08T02:35:29;20.20;99.90
43049;DHT22;28673;44.412;11.918;2023-07-08T02:37:56;20.10;99.90
43049;DHT22;28673;44.412;11.918;2023-07-08T02:40:23;20.10;99.90
43049;DHT22;28673;44.412;11.918;2023-07-08T02:42:50;20.10;99.90
43049;DHT22;28673;44.412;11.918;2023-07-08T02:45:16;20.10;99.90
43049;DHT22;28673;44.412;11.918;2023-07-08T02:47:42;20.10;99.90
43049;DHT22;28673;44.412;11.918;2023-07-08T02:50:10;20.00;99.90
43049;DHT22;28673;44.412;11.918;2023-07-08T02:52:36;20.00;99.90
43049;DHT22;28673;44.412;11.918;2023-07-08T02:55:02;20.00;99.90
43049;DHT22;28673;44.412;11.918;2023-07-08T02:57:28;19.90;99.90
43049;DHT22;28673;44.412;11.918;2023-07-08T02:59:54;19.90;99.90
43049;DHT22;28673;44.412;11.918;2023-07-08T03:02:22;19.90;99.90
43049;DHT22;28673;44.412;11.918;2023-07-08T03:04:48;19.90;99.90
43049;DHT22;28673;44.412;11.918;2023-07-08T03:07:16;19.90;99.90
43049;DHT22;28673;44.412;11.918;2023-07-08T03:09:42;19.80;99.90
43049;DHT22;28673;44.412;11.918;2023-07-08T03:12:10;19.80;99.90
43049;DHT22;28673;44.412;11.918;2023-07-08T03:14:36;19.80;99.90
43049;DHT22;28673;44.412;11.918;2023-07-08T03:17:03;19.80;99.90
43049;DHT22;28673;44.412;11.918;2023-07-08T03:19:29;19.80;99.90
43049;DHT22;28673;44.412;11.918;2023-07-08T03:21:55;19.80;99.90
43049;DHT22;28673;44.412;11.918;2023-07-08T03:24:21;19.80;99.90
43049;DHT22;28673;44.412;11.918;2023-07-08T03:26:48;19.70;99.90
43049;DHT22;28673;44.412;11.918;2023-07-08T03:29:21;19.70;99.90
43049;DHT22;28673;44.412;11.918;2023-07-08T03:31:47;19.70;99.90
43049;DHT22;28673;44.412;11.918;2023-07-08T03:34:15;19.60;99.90
43049;DHT22;28673;44.412;11.918;2023-07-08T03:36:46;19.70;99.90
43049;DHT22;28673;44.412;11.918;2023-07-08T03:39:17;19.60;99.90
43049;DHT22;28673;44.412;11.918;2023-07-08T03:41:44;19.60;99.90
43049;DHT22;28673;44.412;11.918;2023-07-08T03:44:10;19.60;99.90
43049;DHT22;28673;44.412;11.918;2023-07-08T03:46:38;19.60;99.90
43049;DHT22;28673;44.412;11.918;2023-07-08T03:49:06;19.60;99.90
43049;DHT22;28673;44.412;11.918;2023-07-08T03:51:37;19.60;99.90
43049;DHT22;28673;44.412;11.918;2023-07-08T03:54:05;19.60;99.90
43049;DHT22;28673;44.412;11.918;2023-07-08T03:56:34;19.60;99.90
43049;DHT22;28673;44.412;11.918;2023-07-08T03:59:00;19.60;99.90
43049;DHT22;28673;44.412;11.918;2023-07-08T04:01:26;19.50;99.90
43049;DHT22;28673;44.412;11.918;2023-07-08T04:03:55;19.50;99.90
43049;DHT22;28673;44.412;11.918;2023-07-08T04:06:22;19.50;99.90
43049;DHT22;28673;44.412;11.918;2023-07-08T04:08:48;19.50;99.90
43049;DHT22;28673;44.412;11.918;2023-07-08T04:11:20;19.50;99.90
43049;DHT22;28673;44.412;11.918;2023-07-08T04:13:46;19.50;99.90
43049;DHT22;28673;44.412;11.918;2023-07-08T04:16:21;19.50;99.90
43049;DHT22;28673;44.412;11.918;2023-07-08T04:18:48;19.50;99.90
43049;DHT22;28673;44.412;11.918;2023-07-08T04:21:17;19.50;99.90
43049;DHT22;28673;44.412;11.918;2023-07-08T04:23:44;19.50;99.90
43049;DHT22;28673;44.412;11.918;2023-07-08T04:26:09;19.50;99.90
43049;DHT22;28673;44.412;11.918;2023-07-08T04:28:36;19.50;99.90
43049;DHT22;28673;44.412;11.918;2023-07-08T04:31:02;19.50;99.90
43049;DHT22;28673;44.412;11.918;2023-07-08T04:33:30;19.50;99.90
43049;DHT22;28673;44.412;11.918;2023-07-08T04:35:56;19.50;99.90
43049;DHT22;28673;44.412;11.918;2023-07-08T04:38:24;19.60;99.90
43049;DHT22;28673;44.412;11.918;2023-07-08T04:40:51;19.60;99.90
43049;DHT22;28673;44.412;11.918;2023-07-08T04:43:18;19.60;99.90
43049;DHT22;28673;44.412;11.918;2023-07-08T04:45:47;19.60;99.90
43049;DHT22;28673;44.412;11.918;2023-07-08T04:48:18;19.70;99.90
43049;DHT22;28673;44.412;11.918;2023-07-08T04:50:49;19.70;99.90
43049;DHT22;28673;44.412;11.918;2023-07-08T04:53:15;19.70;99.90
43049;DHT22;28673;44.412;11.918;2023-07-08T04:55:44;19.70;99.90
43049;DHT22;28673;44.412;11.918;2023-07-08T04:58:10;19.70;99.90
43049;DHT22;28673;44.412;11.918;2023-07-08T05:00:36;19.80;99.90
43049;DHT22;28673;44.412;11.918;2023-07-08T05:03:02;19.80;99.90
43049;DHT22;28673;44.412;11.918;2023-07-08T05:05:28;19.80;99.90
43049;DHT22;28673;44.412;11.918;2023-07-08T05:07:54;19.90;99.90
43049;DHT22;28673;44.412;11.918;2023-07-08T05:10:20;19.90;99.90
43049;DHT22;28673;44.412;11.918;2023-07-08T05:12:47;20.00;99.90
43049;DHT22;28673;44.412;11.918;2023-07-08T05:15:14;20.00;99.90
43049;DHT22;28673;44.412;11.918;2023-07-08T05:17:41;20.10;99.90
43049;DHT22;28673;44.412;11.918;2023-07-08T05:20:09;20.10;99.90
43049;DHT22;28673;44.412;11.918;2023-07-08T05:22:35;20.20;99.90
43049;DHT22;28673;44.412;11.918;2023-07-08T05:25:02;20.30;99.90
43049;DHT22;28673;44.412;11.918;2023-07-08T05:27:37;20.40;99.90
43049;DHT22;28673;44.412;11.918;2023-07-08T05:30:04;20.40;99.90
43049;DHT22;28673;44.412;11.918;2023-07-08T05:32:31;20.50;99.90
43049;DHT22;28673;44.412;11.918;2023-07-08T05:34:57;20.60;99.90
43049;DHT22;28673;44.412;11.918;2023-07-08T05:37:23;20.70;99.90
43049;DHT22;28673;44.412;11.918;2023-07-08T05:39:54;20.80;99.90
43049;DHT22;28673;44.412;11.918;2023-07-08T05:42:21;20.90;99.90
43049;DHT22;28673;44.412;11.918;2023-07-08T05:44:48;21.00;99.90
43049;DHT22;28673;44.412;11.918;2023-07-08T05:47:17;21.10;99.90
43049;DHT22;28673;44.412;11.918;2023-07-08T05:49:43;21.20;99.90
43049;DHT22;28673;44.412;11.918;2023-07-08T05:52:09;21.40;99.90
43049;DHT22;28673;44.412;11.918;2023-07-08T05:54:38;21.50;99.90
43049;DHT22;28673;44.412;11.918;2023-07-08T05:57:05;21.60;99.90
43049;DHT22;28673;44.412;11.918;2023-07-08T05:59:31;21.70;99.90
43049;DHT22;28673;44.412;11.918;2023-07-08T06:01:57;21.90;99.90
43049;DHT22;28673;44.412;11.918;2023-07-08T06:04:23;22.00;99.90
43049;DHT22;28673;44.412;11.918;2023-07-08T06:06:49;22.10;99.90
43049;DHT22;28673;44.412;11.918;2023-07-08T06:09:15;22.30;99.90
43049;DHT22;28673;44.412;11.918;2023-07-08T06:11:41;22.50;99.90
43049;DHT22;28673;44.412;11.918;2023-07-08T06:14:07;22.60;99.90
43049;DHT22;28673;44.412;11.918;2023-07-08T06:16:33;22.70;99.90
43049;DHT22;28673;44.412;11.918;2023-07-08T06:19:00;22.90;99.90
43049;DHT22;28673;44.412;11.918;2023-07-08T06:21:26;23.10;99.90
43049;DHT22;28673;44.412;11.918;2023-07-08T06:23:52;23.30;99.90
43049;DHT22;28673;44.412;11.918;2023-07-08T06:26:18;23.40;99.90
43049;DHT22;28673;44.412;11.918;2023-07-08T06:28:44;23.60;99.90
43049;DHT22;28673;44.412;11.918;2023-07-08T06:31:10;23.80;99.90
43049;DHT22;28673;44.412;11.918;2023-07-08T06:33:36;24.10;99.90
43049;DHT22;28673;44.412;11.918;2023-07-08T06:36:02;24.30;99.90
43049;DHT22;28673;44.412;11.918;2023-07-08T06:38:28;24.50;99.90
43049;DHT22;28673;44.412;11.918;2023-07-08T06:40:54;24.70;99.70
43049;DHT22;28673;44.412;11.918;2023-07-08T06:43:20;24.90;99.50
43049;DHT22;28673;44.412;11.918;2023-07-08T06:46:08;25.10;99.10
43049;DHT22;28673;44.412;11.918;2023-07-08T06:48:34;25.40;99.00
43049;DHT22;28673;44.412;11.918;2023-07-08T06:51:00;25.60;99.00
43049;DHT22;28673;44.412;11.918;2023-07-08T06:53:26;25.90;98.60
43049;DHT22;28673;44.412;11.918;2023-07-08T06:55:52;26.20;98.40
43049;DHT22;28673;44.412;11.918;2023-07-08T06:58:18;26.50;98.30
43049;DHT22;28673;44.412;11.918;2023-07-08T07:00:45;26.70;98.10
43049;DHT22;28673;44.412;11.918;2023-07-08T07:03:11;26.90;97.90
43049;DHT22;28673;44.412;11.918;2023-07-08T07:05:38;27.10;97.60
43049;DHT22;28673;44.412;11.918;2023-07-08T07:08:04;27.20;97.70
43049;DHT22;28673;44.412;11.918;2023-07-08T07:13:11;27.40;97.40
43049;DHT22;28673;44.412;11.918;2023-07-08T07:15:37;27.40;97.30
43049;DHT22;28673;44.412;11.918;2023-07-08T07:18:04;27.40;97.40
43049;DHT22;28673;44.412;11.918;2023-07-08T07:20:32;27.50;97.60
43049;DHT22;28673;44.412;11.918;2023-07-08T07:22:58;27.60;97.70
43049;DHT22;28673;44.412;11.918;2023-07-08T07:25:24;27.80;97.60
43049;DHT22;28673;44.412;11.918;2023-07-08T07:27:53;28.00;97.40
43049;DHT22;28673;44.412;11.918;2023-07-08T07:30:19;28.20;97.10
43049;DHT22;28673;44.412;11.918;2023-07-08T07:32:45;28.30;96.30
43049;DHT22;28673;44.412;11.918;2023-07-08T07:35:12;28.40;96.10
43049;DHT22;28673;44.412;11.918;2023-07-08T07:37:41;28.50;95.90
43049;DHT22;28673;44.412;11.918;2023-07-08T07:40:12;28.70;95.80
43049;DHT22;28673;44.412;11.918;2023-07-08T07:42:43;28.80;95.40
43049;DHT22;28673;44.412;11.918;2023-07-08T07:45:10;29.10;95.40
43049;DHT22;28673;44.412;11.918;2023-07-08T07:47:36;29.30;94.70
43049;DHT22;28673;44.412;11.918;2023-07-08T07:50:04;29.60;94.10
43049;DHT22;28673;44.412;11.918;2023-07-08T07:52:30;29.70;93.50
43049;DHT22;28673;44.412;11.918;2023-07-08T07:54:56;29.70;93.30
43049;DHT22;28673;44.412;11.918;2023-07-08T07:57:23;29.60;93.30
43049;DHT22;28673;44.412;11.918;2023-07-08T07:59:49;29.60;93.50
43049;DHT22;28673;44.412;11.918;2023-07-08T08:02:16;29.50;93.90
43049;DHT22;28673;44.412;11.918;2023-07-08T08:04:42;29.60;94.00
43049;DHT22;28673;44.412;11.918;2023-07-08T08:07:08;29.80;93.70
43049;DHT22;28673;44.412;11.918;2023-07-08T08:09:36;30.00;93.60
43049;DHT22;28673;44.412;11.918;2023-07-08T08:12:04;30.10;93.10
43049;DHT22;28673;44.412;11.918;2023-07-08T08:14:30;30.40;92.70
43049;DHT22;28673;44.412;11.918;2023-07-08T08:16:59;30.60;92.10
43049;DHT22;28673;44.412;11.918;2023-07-08T08:19:24;30.80;91.60
43049;DHT22;28673;44.412;11.918;2023-07-08T08:21:50;31.00;91.20
43049;DHT22;28673;44.412;11.918;2023-07-08T08:24:16;31.30;90.90
43049;DHT22;28673;44.412;11.918;2023-07-08T08:26:42;31.60;90.70
43049;DHT22;28673;44.412;11.918;2023-07-08T08:29:08;31.80;90.20
43049;DHT22;28673;44.412;11.918;2023-07-08T08:31:34;31.90;89.20
43049;DHT22;28673;44.412;11.918;2023-07-08T08:34:00;32.10;88.50
43049;DHT22;28673;44.412;11.918;2023-07-08T08:36:26;32.10;87.50
43049;DHT22;28673;44.412;11.918;2023-07-08T08:38:52;32.10;87.10
43049;DHT22;28673;44.412;11.918;2023-07-08T08:41:21;32.10;86.10
43049;DHT22;28673;44.412;11.918;2023-07-08T08:43:50;32.20;85.80
43049;DHT22;28673;44.412;11.918;2023-07-08T08:46:32;32.20;85.10
43049;DHT22;28673;44.412;11.918;2023-07-08T08:51:32;32.50;81.80
43049;DHT22;28673;44.412;11.918;2023-07-08T08:53:58;32.60;83.80
43049;DHT22;28673;44.412;11.918;2023-07-08T08:56:34;32.70;82.30
43049;DHT22;28673;44.412;11.918;2023-07-08T08:59:26;32.90;82.10
43049;DHT22;28673;44.412;11.918;2023-07-08T09:01:55;33.10;80.20
43049;DHT22;28673;44.412;11.918;2023-07-08T09:04:34;33.40;81.30
43049;DHT22;28673;44.412;11.918;2023-07-08T09:07:08;33.60;80.50
43049;DHT22;28673;44.412;11.918;2023-07-08T09:09:47;33.70;80.20
43049;DHT22;28673;44.412;11.918;2023-07-08T09:12:20;33.80;79.60
43049;DHT22;28673;44.412;11.918;2023-07-08T09:14:47;33.90;79.30
43049;DHT22;28673;44.412;11.918;2023-07-08T09:17:23;33.80;78.90
43049;DHT22;28673;44.412;11.918;2023-07-08T09:20:15;33.90;79.20
43049;DHT22;28673;44.412;11.918;2023-07-08T09:22:53;34.00;78.90
43049;DHT22;28673;44.412;11.918;2023-07-08T09:25:35;34.10;79.10
43049;DHT22;28673;44.412;11.918;2023-07-08T09:28:01;34.30;78.90
43049;DHT22;28673;44.412;11.918;2023-07-08T09:30:28;34.40;78.10
43049;DHT22;28673;44.412;11.918;2023-07-08T09:32:58;34.50;78.70
43049;DHT22;28673;44.412;11.918;2023-07-08T09:35:37;34.70;78.40
43049;DHT22;28673;44.412;11.918;2023-07-08T09:38:07;34.90;78.20
43049;DHT22;28673;44.412;11.918;2023-07-08T09:40:34;35.10;77.10
43049;DHT22;28673;44.412;11.918;2023-07-08T09:43:26;35.30;77.60
43049;DHT22;28673;44.412;11.918;2023-07-08T09:45:57;35.60;74.50
43049;DHT22;28673;44.412;11.918;2023-07-08T09:48:27;35.80;75.10
43049;DHT22;28673;44.412;11.918;2023-07-08T09:50:54;35.80;74.80
43049;DHT22;28673;44.412;11.918;2023-07-08T09:53:21;35.80;74.50
43049;DHT22;28673;44.412;11.918;2023-07-08T09:55:49;35.80;73.90
43049;DHT22;28673;44.412;11.918;2023-07-08T09:58:36;35.80;73.20
43049;DHT22;28673;44.412;11.918;2023-07-08T10:01:11;35.70;73.10
43049;DHT22;28673;44.412;11.918;2023-07-08T10:03:39;35.80;74.50
43049;DHT22;28673;44.412;11.918;2023-07-08T10:08:53;35.90;71.80
43049;DHT22;28673;44.412;11.918;2023-07-08T10:11:29;36.10;70.40
43049;DHT22;28673;44.412;11.918;2023-07-08T10:14:26;36.20;70.10
43049;DHT22;28673;44.412;11.918;2023-07-08T10:16:53;36.20;69.80
43049;DHT22;28673;44.412;11.918;2023-07-08T10:19:20;36.40;70.80
43049;DHT22;28673;44.412;11.918;2023-07-08T10:22:15;36.50;70.60
43049;DHT22;28673;44.412;11.918;2023-07-08T10:27:46;36.60;70.30
43049;DHT22;28673;44.412;11.918;2023-07-08T10:33:17;36.80;67.60
43049;DHT22;28673;44.412;11.918;2023-07-08T10:41:35;37.20;66.40
43049;DHT22;28673;44.412;11.918;2023-07-08T10:44:35;37.30;65.30
43049;DHT22;28673;44.412;11.918;2023-07-08T10:49:56;37.30;67.10
43049;DHT22;28673;44.412;11.918;2023-07-08T10:52:51;37.40;65.20
43049;DHT22;28673;44.412;11.918;2023-07-08T10:55:42;37.70;65.50
43049;DHT22;28673;44.412;11.918;2023-07-08T10:58:39;37.90;64.90
43049;DHT22;28673;44.412;11.918;2023-07-08T11:09:49;37.90;64.40
43049;DHT22;28673;44.412;11.918;2023-07-08T11:15:52;37.90;62.80
43049;DHT22;28673;44.412;11.918;2023-07-08T11:18:25;37.90;62.90
43049;DHT22;28673;44.412;11.918;2023-07-08T11:23:29;38.00;62.60
43049;DHT22;28673;44.412;11.918;2023-07-08T11:26:28;38.10;62.60
43049;DHT22;28673;44.412;11.918;2023-07-08T11:28:58;38.00;61.60
43049;DHT22;28673;44.412;11.918;2023-07-08T11:31:25;38.10;62.10
43049;DHT22;28673;44.412;11.918;2023-07-08T11:33:52;38.20;61.50
43049;DHT22;28673;44.412;11.918;2023-07-08T11:36:20;38.20;62.00
43049;DHT22;28673;44.412;11.918;2023-07-08T11:38:49;38.20;60.80
43049;DHT22;28673;44.412;11.918;2023-07-08T11:41:18;38.20;61.10
43049;DHT22;28673;44.412;11.918;2023-07-08T11:43:49;38.20;60.90
43049;DHT22;28673;44.412;11.918;2023-07-08T11:46:28;38.20;59.60
43049;DHT22;28673;44.412;11.918;2023-07-08T11:49:04;38.30;60.80
43049;DHT22;28673;44.412;11.918;2023-07-08T11:51:33;38.40;60.90
43049;DHT22;28673;44.412;11.918;2023-07-08T11:54:03;38.40;60.80
43049;DHT22;28673;44.412;11.918;2023-07-08T11:56:57;38.50;61.60
43049;DHT22;28673;44.412;11.918;2023-07-08T11:59:25;38.50;61.20
43049;DHT22;28673;44.412;11.918;2023-07-08T12:01:54;38.60;60.00
43049;DHT22;28673;44.412;11.918;2023-07-08T12:04:27;38.60;59.40
43049;DHT22;28673;44.412;11.918;2023-07-08T12:07:15;38.60;59.60
43049;DHT22;28673;44.412;11.918;2023-07-08T12:12:32;38.80;58.90
43049;DHT22;28673;44.412;11.918;2023-07-08T12:15:24;39.00;59.30
43049;DHT22;28673;44.412;11.918;2023-07-08T12:17:48;39.10;58.40
43049;DHT22;28673;44.412;11.918;2023-07-08T12:20:22;39.20;59.10
43049;DHT22;28673;44.412;11.918;2023-07-08T12:22:50;39.10;57.70
43049;DHT22;28673;44.412;11.918;2023-07-08T12:25:18;39.10;58.60
43049;DHT22;28673;44.412;11.918;2023-07-08T12:27:45;39.00;57.90
43049;DHT22;28673;44.412;11.918;2023-07-08T12:30:12;38.80;57.40
43049;DHT22;28673;44.412;11.918;2023-07-08T12:32:40;38.90;58.00
43049;DHT22;28673;44.412;11.918;2023-07-08T12:35:24;39.10;58.20
43049;DHT22;28673;44.412;11.918;2023-07-08T12:37:57;39.20;58.00
43049;DHT22;28673;44.412;11.918;2023-07-08T12:40:26;39.20;57.60
43049;DHT22;28673;44.412;11.918;2023-07-08T12:42:54;39.20;57.20
43049;DHT22;28673;44.412;11.918;2023-07-08T12:45:22;39.30;57.80
43049;DHT22;28673;44.412;11.918;2023-07-08T12:47:48;39.40;56.90
43049;DHT22;28673;44.412;11.918;2023-07-08T12:50:15;39.40;56.80
43049;DHT22;28673;44.412;11.918;2023-07-08T12:52:44;39.40;56.70
43049;DHT22;28673;44.412;11.918;2023-07-08T12:55:12;39.50;56.30
43049;DHT22;28673;44.412;11.918;2023-07-08T12:57:42;39.40;56.00
43049;DHT22;28673;44.412;11.918;2023-07-08T13:00:26;39.50;55.70
43049;DHT22;28673;44.412;11.918;2023-07-08T13:03:05;39.50;55.10
43049;DHT22;28673;44.412;11.918;2023-07-08T13:05:31;39.40;56.30
43049;DHT22;28673;44.412;11.918;2023-07-08T13:07:58;39.40;56.40
43049;DHT22;28673;44.412;11.918;2023-07-08T13:10:26;39.50;56.10
43049;DHT22;28673;44.412;11.918;2023-07-08T13:12:57;39.60;55.40
43049;DHT22;28673;44.412;11.918;2023-07-08T13:15:32;39.60;55.60
43049;DHT22;28673;44.412;11.918;2023-07-08T13:18:01;39.60;55.50
43049;DHT22;28673;44.412;11.918;2023-07-08T13:20:27;39.50;54.90
43049;DHT22;28673;44.412;11.918;2023-07-08T13:23:01;39.40;54.70
43049;DHT22;28673;44.412;11.918;2023-07-08T13:25:31;39.40;55.70
43049;DHT22;28673;44.412;11.918;2023-07-08T13:30:54;39.50;55.60
43049;DHT22;28673;44.412;11.918;2023-07-08T13:33:20;39.50;56.00
43049;DHT22;28673;44.412;11.918;2023-07-08T13:35:47;39.60;56.10
43049;DHT22;28673;44.412;11.918;2023-07-08T13:38:15;39.70;56.40
43049;DHT22;28673;44.412;11.918;2023-07-08T13:40:47;39.80;56.60
43049;DHT22;28673;44.412;11.918;2023-07-08T13:43:14;39.90;56.30
43049;DHT22;28673;44.412;11.918;2023-07-08T13:45:44;40.00;56.40
43049;DHT22;28673;44.412;11.918;2023-07-08T13:48:36;40.00;55.50
43049;DHT22;28673;44.412;11.918;2023-07-08T13:58:45;40.20;55.70
43049;DHT22;28673;44.412;11.918;2023-07-08T14:01:21;40.30;55.50
43049;DHT22;28673;44.412;11.918;2023-07-08T14:03:47;40.20;56.50
43049;DHT22;28673;44.412;11.918;2023-07-08T14:06:19;40.20;56.00
43049;DHT22;28673;44.412;11.918;2023-07-08T14:08:46;40.30;55.90
43049;DHT22;28673;44.412;11.918;2023-07-08T14:11:14;40.30;55.80
43049;DHT22;28673;44.412;11.918;2023-07-08T14:13:39;40.20;55.90
43049;DHT22;28673;44.412;11.918;2023-07-08T14:16:24;40.30;55.90
43049;DHT22;28673;44.412;11.918;2023-07-08T14:18:51;40.30;55.20
43049;DHT22;28673;44.412;11.918;2023-07-08T14:21:18;40.30;55.80
43049;DHT22;28673;44.412;11.918;2023-07-08T14:23:44;40.30;55.50
43049;DHT22;28673;44.412;11.918;2023-07-08T14:26:11;40.40;55.30
43049;DHT22;28673;44.412;11.918;2023-07-08T14:28:37;40.50;55.40
43049;DHT22;28673;44.412;11.918;2023-07-08T14:31:07;40.70;55.20
43049;DHT22;28673;44.412;11.918;2023-07-08T14:33:34;40.70;55.10
43049;DHT22;28673;44.412;11.918;2023-07-08T14:36:00;40.60;55.30
43049;DHT22;28673;44.412;11.918;2023-07-08T14:38:25;40.70;55.10
43049;DHT22;28673;44.412;11.918;2023-07-08T14:40:51;40.70;55.40
43049;DHT22;28673;44.412;11.918;2023-07-08T14:43:24;40.70;55.40
43049;DHT22;28673;44.412;11.918;2023-07-08T14:45:55;40.70;56.20
43049;DHT22;28673;44.412;11.918;2023-07-08T14:48:21;40.70;54.50
43049;DHT22;28673;44.412;11.918;2023-07-08T14:50:47;40.40;54.50
43049;DHT22;28673;44.412;11.918;2023-07-08T14:53:17;40.30;55.40
43049;DHT22;28673;44.412;11.918;2023-07-08T14:55:45;40.30;55.30
43049;DHT22;28673;44.412;11.918;2023-07-08T14:58:29;40.30;54.60
43049;DHT22;28673;44.412;11.918;2023-07-08T15:00:57;40.20;55.40
43049;DHT22;28673;44.412;11.918;2023-07-08T15:03:24;40.20;55.60
43049;DHT22;28673;44.412;11.918;2023-07-08T15:05:51;40.30;55.70
43049;DHT22;28673;44.412;11.918;2023-07-08T15:08:17;40.20;55.70
43049;DHT22;28673;44.412;11.918;2023-07-08T15:10:51;40.20;55.70
43049;DHT22;28673;44.412;11.918;2023-07-08T15:13:19;40.20;55.70
43049;DHT22;28673;44.412;11.918;2023-07-08T15:15:47;40.00;55.00
43049;DHT22;28673;44.412;11.918;2023-07-08T15:18:15;39.70;55.20
43049;DHT22;28673;44.412;11.918;2023-07-08T15:20:41;39.60;55.90
43049;DHT22;28673;44.412;11.918;2023-07-08T15:23:09;39.60;56.50
43049;DHT22;28673;44.412;11.918;2023-07-08T15:25:36;39.60;56.30
43049;DHT22;28673;44.412;11.918;2023-07-08T15:28:02;39.60;56.50
43049;DHT22;28673;44.412;11.918;2023-07-08T15:30:29;39.60;56.60
43049;DHT22;28673;44.412;11.918;2023-07-08T15:32:56;39.60;56.70
43049;DHT22;28673;44.412;11.918;2023-07-08T15:35:27;39.60;56.90
43049;DHT22;28673;44.412;11.918;2023-07-08T15:37:58;39.70;56.60
43049;DHT22;28673;44.412;11.918;2023-07-08T15:40:25;39.70;56.80
43049;DHT22;28673;44.412;11.918;2023-07-08T15:42:55;39.60;56.70
43049;DHT22;28673;44.412;11.918;2023-07-08T15:45:50;39.60;57.20
43049;DHT22;28673;44.412;11.918;2023-07-08T15:48:17;39.50;57.50
43049;DHT22;28673;44.412;11.918;2023-07-08T15:50:44;39.50;57.40
43049;DHT22;28673;44.412;11.918;2023-07-08T15:53:10;39.50;58.00
43049;DHT22;28673;44.412;11.918;2023-07-08T15:55:39;39.50;58.30
43049;DHT22;28673;44.412;11.918;2023-07-08T15:58:12;39.60;57.90
43049;DHT22;28673;44.412;11.918;2023-07-08T16:00:39;39.50;57.70
43049;DHT22;28673;44.412;11.918;2023-07-08T16:03:26;39.40;57.80
43049;DHT22;28673;44.412;11.918;2023-07-08T16:05:53;39.30;57.90
43049;DHT22;28673;44.412;11.918;2023-07-08T16:08:20;39.10;58.60
43049;DHT22;28673;44.412;11.918;2023-07-08T16:10:55;39.00;59.00
43049;DHT22;28673;44.412;11.918;2023-07-08T16:13:27;39.00;59.00
43049;DHT22;28673;44.412;11.918;2023-07-08T16:15:54;38.90;59.10
43049;DHT22;28673;44.412;11.918;2023-07-08T16:18:20;38.90;59.40
43049;DHT22;28673;44.412;11.918;2023-07-08T16:20:47;38.80;59.30
43049;DHT22;28673;44.412;11.918;2023-07-08T16:23:13;38.90;59.60
43049;DHT22;28673;44.412;11.918;2023-07-08T16:25:45;38.70;59.30